Time;durP1;ratioP1;P1;durP2;ratioP2;P2;SDS_P1;SDS_P2;PMS_P1;PMS_P2;Temp;Humidity;BMP_temperature;BMP_pressure;BME280_temperature;BME280_humidity;BME280_pressure;Samples;Min_cycle;Max_cycle;Signal;HPM_P1;HPM_P2
2022/12/30 00:01:23;;;;;;;12.52;2.03;;;;;;;8.85;90.42;99984.31;5209201;28;20029;-76
2022/12/30 00:03:53;;;;;;;11.40;1.58;;;;;;;8.76;90.14;99993.34;5220756;28;20498;-75
2022/12/30 00:06:25;;;;;;;12.82;1.83;;;;;;;8.71;90.30;99979.66;5201198;28;20059;-75
2022/12/30 00:08:57;;;;;;;13.52;2.15;;;;;;;8.70;90.72;99984.94;5220579;28;20521;-75
2022/12/30 00:11:30;;;;;;;12.70;1.90;;;;;;;8.68;90.66;99992.78;5221033;28;20021;-76
2022/12/30 00:34:17;;;;;;;17.52;2.25;;;;;;;8.71;90.21;100007.47;5237736;22;20403;-72
2022/12/30 00:36:49;;;;;;;11.80;1.95;;;;;;;8.61;90.11;100008.69;5225327;28;20029;-72
2022/12/30 00:39:19;;;;;;;11.25;1.90;;;;;;;8.62;90.57;100016.47;5226549;28;20568;-72
2022/12/30 00:44:39;;;;;;;12.52;1.95;;;;;;;8.66;89.50;100020.66;5214201;28;20067;-72
2022/12/30 00:47:11;;;;;;;12.60;2.15;;;;;;;8.60;90.38;100020.03;5209498;28;20021;-73
2022/12/30 00:58:07;;;;;;;10.45;1.90;;;;;;;8.63;89.58;100049.41;5229912;28;20501;-72
2022/12/30 01:00:38;;;;;;;16.52;1.95;;;;;;;8.55;90.53;100053.19;5220307;28;20049;-72
2022/12/30 01:03:08;;;;;;;9.70;2.05;;;;;;;8.60;89.98;100067.78;5228768;28;20424;-72
2022/12/30 01:05:39;;;;;;;13.90;1.80;;;;;;;8.65;90.08;100068.44;5219861;28;20103;-72
2022/12/30 01:08:09;;;;;;;10.52;1.73;;;;;;;8.70;89.82;100069.13;5211340;28;20051;-72
2022/12/30 01:10:40;;;;;;;8.52;1.95;;;;;;;8.64;89.96;100064.13;5220728;28;20108;-72
2022/12/30 01:13:10;;;;;;;12.93;1.75;;;;;;;8.69;89.38;100067.41;5229030;28;20029;-73
2022/12/30 01:15:40;;;;;;;9.43;1.88;;;;;;;8.67;89.21;100074.44;5225210;28;20051;-72
2022/12/30 01:18:11;;;;;;;13.48;2.15;;;;;;;8.70;88.96;100078.72;5226415;28;20029;-73
2022/12/30 01:20:41;;;;;;;8.40;1.70;;;;;;;8.65;88.61;100070.19;5211152;28;20617;-72
2022/12/30 01:23:11;;;;;;;11.43;2.08;;;;;;;8.75;87.83;100088.03;5226009;28;20425;-72
2022/12/30 01:25:41;;;;;;;12.77;1.95;;;;;;;8.77;88.05;100083.63;5225303;28;20312;-72
2022/12/30 01:28:12;;;;;;;11.20;1.40;;;;;;;8.68;88.14;100088.31;5227765;28;20027;-72
2022/12/30 01:30:42;;;;;;;14.52;2.28;;;;;;;8.60;87.75;100096.41;5226480;28;20032;-72
2022/12/30 01:33:12;;;;;;;9.35;1.75;;;;;;;8.63;87.90;100109.31;5231643;28;20025;-72
2022/12/30 01:35:43;;;;;;;11.35;1.80;;;;;;;8.55;87.94;100102.69;5231555;28;20032;-72
2022/12/30 01:38:13;;;;;;;13.55;1.83;;;;;;;8.58;88.55;100111.22;5227293;28;20108;-72
2022/12/30 01:40:44;;;;;;;14.25;1.92;;;;;;;8.60;88.42;100116.38;5229290;28;20033;-72
2022/12/30 01:43:16;;;;;;;13.00;2.15;;;;;;;8.54;88.33;100114.00;5214262;28;20020;-72
2022/12/30 01:45:50;;;;;;;10.48;2.20;;;;;;;8.56;88.83;100118.25;5225538;28;20059;-72
2022/12/30 01:48:26;;;;;;;12.27;1.80;;;;;;;8.64;88.68;100115.38;5228097;28;20490;-72
2022/12/30 01:51:01;;;;;;;11.77;1.88;;;;;;;8.62;87.94;100120.66;5229856;28;20060;-72
2022/12/30 01:53:36;;;;;;;9.52;1.73;;;;;;;8.66;87.97;100114.41;5229076;28;20032;-73
2022/12/30 01:56:25;;;;;;;15.40;2.10;;;;;;;8.68;88.13;100117.81;5223863;28;20405;-72
2022/12/30 01:59:10;;;;;;;14.13;1.95;;;;;;;8.57;88.59;100130.34;5226299;28;20490;-72
2022/12/30 02:01:42;;;;;;;11.60;2.20;;;;;;;8.64;88.98;100121.44;5199964;28;20094;-73
2022/12/30 02:04:18;;;;;;;16.55;2.03;;;;;;;8.60;88.28;100135.47;5217427;28;20325;-72
2022/12/30 02:06:58;;;;;;;7.60;1.55;;;;;;;8.64;88.50;100144.03;5224381;28;20155;-71
2022/12/30 02:09:31;;;;;;;13.10;2.20;;;;;;;8.60;88.85;100142.44;5230595;28;20024;-72
2022/12/30 02:12:05;;;;;;;10.88;1.92;;;;;;;8.60;88.59;100140.69;5229011;28;20469;-72
2022/12/30 02:14:39;;;;;;;10.18;1.98;;;;;;;8.51;89.38;100140.13;5200589;28;20040;-72
2022/12/30 02:17:37;;;;;;;17.40;1.98;;;;;;;8.51;89.82;100142.72;5219197;28;20482;-71
2022/12/30 02:20:24;;;;;;;10.52;1.70;;;;;;;8.52;89.69;100153.09;5225394;28;20158;-72
2022/12/30 02:22:57;;;;;;;12.48;2.22;;;;;;;8.55;89.30;100147.78;5226628;28;20124;-73
2022/12/30 02:25:43;;;;;;;15.80;2.17;;;;;;;8.47;89.54;100148.94;5230313;28;20040;-72
2022/12/30 02:28:47;;;;;;;14.55;1.90;;;;;;;8.42;89.51;100156.06;5223874;28;20029;-73
2022/12/30 02:31:55;;;;;;;12.35;1.88;;;;;;;8.56;88.92;100148.66;5221457;28;20094;-73
2022/12/30 02:34:51;;;;;;;13.02;1.73;;;;;;;8.47;88.91;100155.03;5225748;28;20040;-73
2022/12/30 02:37:37;;;;;;;;;;;;;;;8.49;88.71;100161.03;5179103;28;20036;-72
2022/12/30 02:40:07;;;;;;;10.80;2.00;;;;;;;8.51;88.84;100156.63;5227980;28;19919;-72
2022/12/30 02:45:50;;;;;;;11.05;2.10;;;;;;;8.39;89.96;100151.81;5223282;28;20106;-72
2022/12/30 02:48:26;;;;;;;14.30;2.53;;;;;;;8.43;89.73;100160.38;5226880;28;20136;-72
2022/12/30 02:53:47;;;;;;;11.60;1.83;;;;;;;8.47;89.73;100165.44;5225514;28;20067;-72
2022/12/30 02:56:18;;;;;;;14.02;2.25;;;;;;;8.48;89.61;100166.28;5227049;28;20024;-73
2022/12/30 03:03:56;;;;;;;9.88;2.00;;;;;;;8.55;89.38;100159.97;5227434;28;20524;-71
2022/12/30 03:04:59;;;;;;;11.52;2.00;;;;;;;8.50;88.93;100154.91;5223194;28;20056;-72
2022/12/30 03:07:39;;;;;;;11.85;1.85;;;;;;;8.54;87.97;100166.09;5228922;28;20024;-72
2022/12/30 03:13:26;;;;;;;12.75;2.25;;;;;;;8.40;89.22;100168.31;5217368;28;20029;-73
2022/12/30 03:16:40;;;;;;;13.43;2.50;;;;;;;8.43;89.46;100168.19;5221223;28;20264;-72
2022/12/30 03:19:23;;;;;;;9.18;2.00;;;;;;;8.40;90.08;100169.13;5213555;28;20040;-72
2022/12/30 03:21:54;;;;;;;14.23;2.70;;;;;;;8.32;90.32;100171.16;5219633;28;20067;-72
2022/12/30 03:27:22;;;;;;;14.32;2.50;;;;;;;8.35;89.25;100173.66;5230946;28;20104;-72
2022/12/30 03:30:01;;;;;;;12.90;2.10;;;;;;;8.27;90.10;100177.41;5224510;28;20537;-73
2022/12/30 03:32:32;;;;;;;18.77;2.70;;;;;;;8.33;90.32;100185.88;5222889;28;20041;-72
2022/12/30 03:35:02;;;;;;;12.07;1.70;;;;;;;8.33;89.01;100191.09;5221099;28;20078;-72
2022/12/30 03:37:36;;;;;;;11.75;1.95;;;;;;;8.43;88.90;100189.88;5216870;28;20490;-72
2022/12/30 03:40:13;;;;;;;14.15;2.10;;;;;;;8.36;89.30;100192.75;5227243;28;20029;-72
2022/12/30 03:42:46;;;;;;;14.82;2.33;;;;;;;8.33;89.13;100196.28;5224586;28;20040;-73
2022/12/30 03:45:17;;;;;;;11.63;1.92;;;;;;;8.31;89.13;100199.81;5225105;28;20053;-72
2022/12/30 03:47:47;;;;;;;11.65;2.10;;;;;;;8.24;89.67;100200.94;5222838;28;20112;-72
2022/12/30 03:50:18;;;;;;;12.45;2.10;;;;;;;8.22;90.02;100200.97;5227151;28;20116;-72
2022/12/30 03:52:48;;;;;;;7.43;1.58;;;;;;;8.23;90.80;100207.06;5225521;28;20032;-73
2022/12/30 03:55:18;;;;;;;10.95;1.88;;;;;;;8.11;90.82;100208.25;5225916;28;20029;-72
2022/12/30 03:57:48;;;;;;;7.97;1.88;;;;;;;8.21;90.01;100208.84;5223233;28;20071;-72
2022/12/30 04:00:22;;;;;;;11.82;2.08;;;;;;;8.16;90.37;100203.75;5223047;28;20051;-72
2022/12/30 04:02:52;;;;;;;10.80;1.80;;;;;;;8.13;90.87;100209.06;5226052;28;20108;-73
2022/12/30 04:05:22;;;;;;;12.10;1.83;;;;;;;8.12;90.75;100212.56;5224932;28;20136;-73
2022/12/30 04:07:53;;;;;;;10.75;1.88;;;;;;;8.17;91.13;100208.06;5226150;28;20124;-72
2022/12/30 04:10:23;;;;;;;10.80;2.05;;;;;;;8.00;91.82;100210.34;5233609;28;20050;-72
2022/12/30 04:12:53;;;;;;;8.55;1.75;;;;;;;8.09;90.71;100204.00;5230901;28;20042;-73
2022/12/30 04:15:23;;;;;;;17.45;2.47;;;;;;;8.13;90.26;100203.84;5227554;28;20040;-72
2022/12/30 04:17:54;;;;;;;12.25;2.20;;;;;;;8.01;90.46;100216.41;5223734;28;20032;-72
2022/12/30 04:20:24;;;;;;;12.40;2.08;;;;;;;7.96;90.92;100213.94;5233133;28;20036;-73
2022/12/30 04:22:58;;;;;;;11.77;1.55;;;;;;;7.93;91.27;100214.03;5232560;28;20546;-72
2022/12/30 04:25:28;;;;;;;15.07;2.05;;;;;;;7.93;91.89;100220.97;5229284;28;20060;-73
2022/12/30 04:27:59;;;;;;;12.13;1.83;;;;;;;7.97;91.06;100213.03;5230656;28;20086;-72
2022/12/30 04:30:29;;;;;;;11.27;2.20;;;;;;;7.94;91.28;100220.94;5205356;28;20024;-73
2022/12/30 04:33:00;;;;;;;12.18;1.92;;;;;;;7.97;91.10;100226.03;5219032;28;20164;-72
2022/12/30 04:35:30;;;;;;;8.18;1.77;;;;;;;7.96;91.16;100228.69;5221785;28;20044;-72
2022/12/30 04:38:01;;;;;;;14.05;2.10;;;;;;;8.00;90.70;100236.34;5226768;28;20033;-72
2022/12/30 04:40:31;;;;;;;10.05;1.58;;;;;;;8.09;90.33;100240.44;5233328;28;20031;-72
2022/12/30 04:43:01;;;;;;;12.90;2.22;;;;;;;8.03;91.23;100243.22;5227902;28;20024;-73
2022/12/30 04:45:32;;;;;;;10.30;1.80;;;;;;;8.08;90.20;100243.94;5232788;28;20493;-73
2022/12/30 04:48:02;;;;;;;19.00;2.17;;;;;;;8.10;90.53;100249.94;5230976;28;20530;-73
2022/12/30 04:50:32;;;;;;;11.50;2.15;;;;;;;7.98;90.77;100253.78;5230774;28;20478;-73
2022/12/30 04:53:03;;;;;;;12.88;1.90;;;;;;;7.95;90.53;100253.88;5230920;28;20135;-72
2022/12/30 04:55:33;;;;;;;10.55;2.10;;;;;;;7.97;90.95;100251.19;5222683;28;20397;-73
2022/12/30 04:58:05;;;;;;;10.07;1.80;;;;;;;7.92;91.37;100261.78;5230944;28;20058;-73
2022/12/30 05:00:35;;;;;;;12.52;2.08;;;;;;;7.88;91.54;100269.69;5223695;28;20086;-72
2022/12/30 05:03:05;;;;;;;13.00;1.90;;;;;;;7.80;92.13;100274.25;5229385;28;20021;-72
2022/12/30 05:05:35;;;;;;;13.98;2.33;;;;;;;7.83;91.63;100279.38;5223274;28;20029;-73
2022/12/30 05:08:06;;;;;;;12.88;1.90;;;;;;;7.82;91.97;100277.66;5224743;28;20062;-72
2022/12/30 05:10:38;;;;;;;11.05;2.00;;;;;;;7.75;91.84;100276.16;5230442;28;20025;-72
2022/12/30 05:13:08;;;;;;;11.20;1.95;;;;;;;7.68;92.47;100283.28;5224657;28;20506;-73
2022/12/30 05:15:39;;;;;;;8.60;1.80;;;;;;;7.74;91.65;100285.69;5231399;28;20025;-73
2022/12/30 05:18:10;;;;;;;11.52;2.42;;;;;;;7.72;91.28;100284.06;5229518;28;20037;-72
2022/12/30 05:20:40;;;;;;;11.98;1.88;;;;;;;7.60;92.32;100281.78;5229702;28;20123;-71
2022/12/30 05:26:13;;;;;;;12.18;1.80;;;;;;;7.40;92.79;100295.38;5225577;28;20102;-72
2022/12/30 05:26:13;;;;;;;15.30;2.00;;;;;;;7.54;92.81;100297.56;5223870;28;20111;-72
2022/12/30 05:28:45;;;;;;;13.57;2.13;;;;;;;7.30;94.21;100296.50;5222695;28;20032;-72
2022/12/30 05:31:17;;;;;;;11.40;1.50;;;;;;;7.19;94.67;100294.22;5225765;28;20065;-72
2022/12/30 05:33:47;;;;;;;9.20;1.70;;;;;;;7.13;94.59;100303.00;5230466;28;20556;-72
2022/12/30 05:36:18;;;;;;;13.05;1.88;;;;;;;7.08;95.28;100299.69;5228690;28;20029;-73
2022/12/30 05:38:48;;;;;;;10.57;1.80;;;;;;;7.04;95.35;100307.59;5225462;28;20090;-72
2022/12/30 05:41:18;;;;;;;9.23;2.10;;;;;;;7.00;96.52;100303.38;5232851;28;20052;-72
2022/12/30 05:43:49;;;;;;;15.00;2.38;;;;;;;6.96;94.92;100301.75;5230380;28;20122;-72
2022/12/30 05:46:21;;;;;;;9.95;2.17;;;;;;;6.81;96.51;100302.13;5228332;28;20024;-72
2022/12/30 05:48:51;;;;;;;16.50;2.25;;;;;;;6.76;97.12;100311.78;5231423;28;20544;-72
2022/12/30 05:51:22;;;;;;;13.85;2.17;;;;;;;6.67;98.21;100304.22;5222573;28;20036;-72
2022/12/30 05:53:52;;;;;;;11.10;2.30;;;;;;;6.62;98.79;100317.28;5219268;28;20318;-72
2022/12/30 05:56:23;;;;;;;8.88;1.67;;;;;;;6.60;98.92;100307.84;5225106;28;20025;-72
2022/12/30 05:58:53;;;;;;;16.58;2.08;;;;;;;6.55;99.43;100320.06;5228742;28;20044;-72
2022/12/30 06:01:23;;;;;;;12.27;2.13;;;;;;;6.60;99.24;100324.25;5225821;28;20043;-72
2022/12/30 06:03:55;;;;;;;11.70;2.00;;;;;;;6.57;99.00;100320.91;5231267;28;20056;-72
2022/12/30 06:06:26;;;;;;;10.40;1.88;;;;;;;6.54;99.10;100331.34;5230938;28;20047;-72
2022/12/30 06:08:56;;;;;;;11.55;1.63;;;;;;;6.59;98.19;100327.75;5227209;28;20021;-72
2022/12/30 06:11:26;;;;;;;13.70;2.00;;;;;;;6.62;100.00;100332.03;5231058;28;20508;-72
2022/12/30 06:13:57;;;;;;;11.55;1.83;;;;;;;6.62;99.41;100332.88;5231217;28;20429;-72
2022/12/30 06:16:28;;;;;;;10.07;1.83;;;;;;;6.69;98.79;100338.78;5228468;28;20083;-72
2022/12/30 06:18:58;;;;;;;12.35;2.00;;;;;;;6.66;98.29;100331.06;5227194;28;20052;-72
2022/12/30 06:21:29;;;;;;;13.60;1.90;;;;;;;6.58;99.77;100336.44;5231272;28;20039;-72
2022/12/30 06:23:59;;;;;;;8.18;1.98;;;;;;;6.55;98.05;100333.03;5228911;28;20025;-71
2022/12/30 06:26:30;;;;;;;12.63;1.65;;;;;;;6.63;99.34;100341.53;5228816;28;20090;-71
2022/12/30 06:29:00;;;;;;;15.90;1.75;;;;;;;6.56;100.00;100345.16;5227309;28;20036;-72
2022/12/30 06:31:30;;;;;;;9.65;1.60;;;;;;;6.55;99.72;100346.03;5222745;28;20119;-72
2022/12/30 06:34:01;;;;;;;16.20;2.20;;;;;;;6.59;100.00;100338.13;5230892;28;20131;-72
2022/12/30 06:36:31;;;;;;;9.63;1.50;;;;;;;6.53;100.00;100333.09;5228662;28;20029;-72
2022/12/30 06:39:01;;;;;;;12.27;1.63;;;;;;;6.56;99.79;100333.03;5227118;28;20024;-71
2022/12/30 06:41:31;;;;;;;10.40;1.90;;;;;;;6.57;100.00;100341.69;5229476;28;20035;-72
2022/12/30 06:44:02;;;;;;;11.15;1.80;;;;;;;6.65;99.42;100339.75;5214944;28;20070;-72
2022/12/30 06:46:32;;;;;;;17.13;3.92;;;;;;;6.62;98.91;100339.81;5222400;28;20073;-72
2022/12/30 06:49:02;;;;;;;12.18;2.40;;;;;;;6.58;99.23;100346.81;5227625;28;20024;-73
2022/12/30 06:51:33;;;;;;;13.63;1.40;;;;;;;6.52;98.74;100353.88;5227930;28;20146;-73
2022/12/30 06:54:03;;;;;;;12.48;1.60;;;;;;;6.44;100.00;100354.06;5231319;28;20032;-72
2022/12/30 06:56:33;;;;;;;7.18;1.52;;;;;;;6.45;100.00;100370.50;5229885;28;20021;-72
2022/12/30 06:59:03;;;;;;;12.45;1.67;;;;;;;6.45;100.00;100378.28;5230742;28;20037;-72
2022/12/30 07:01:34;;;;;;;10.90;1.98;;;;;;;6.37;100.00;100373.25;5223999;28;20031;-73
2022/12/30 07:04:04;;;;;;;12.90;2.20;;;;;;;6.42;100.00;100368.81;5236062;28;20354;-73
2022/12/30 07:06:34;;;;;;;14.43;2.13;;;;;;;6.29;100.00;100367.38;5236300;28;20159;-73
2022/12/30 07:09:05;;;;;;;9.77;1.80;;;;;;;6.08;100.00;100377.38;5236495;28;20110;-72
2022/12/30 07:11:35;;;;;;;8.18;1.73;;;;;;;6.16;100.00;100378.06;5227869;28;20098;-73
2022/12/30 07:14:14;;;;;;;12.15;2.28;;;;;;;6.13;100.00;100372.94;5232933;28;20032;-73
2022/12/30 07:16:45;;;;;;;11.00;1.80;;;;;;;6.09;100.00;100366.94;5230649;28;20539;-72
2022/12/30 07:19:15;;;;;;;8.63;1.58;;;;;;;6.23;100.00;100366.69;5232239;28;20113;-72
2022/12/30 07:21:45;;;;;;;10.60;1.73;;;;;;;6.24;100.00;100365.78;5237201;28;20032;-72
2022/12/30 07:24:16;;;;;;;8.68;1.40;;;;;;;6.26;100.00;100379.59;5232437;28;20037;-72
2022/12/30 07:26:46;;;;;;;10.48;1.60;;;;;;;6.26;100.00;100374.38;5230838;28;20163;-72
2022/12/30 07:29:16;;;;;;;12.10;2.00;;;;;;;6.24;100.00;100373.56;5222579;28;20375;-73
2022/12/30 07:31:47;;;;;;;12.10;1.70;;;;;;;6.29;100.00;100380.34;5229095;28;20486;-72
2022/12/30 07:34:17;;;;;;;17.27;2.38;;;;;;;6.41;100.00;100372.31;5228430;28;20050;-73
2022/12/30 07:36:47;;;;;;;7.05;1.58;;;;;;;6.52;100.00;100372.06;5228664;28;20033;-72
2022/12/30 07:39:18;;;;;;;8.50;1.30;;;;;;;6.55;100.00;100372.00;5233342;28;20032;-72
2022/12/30 07:41:48;;;;;;;16.98;1.75;;;;;;;6.53;100.00;100377.22;5234824;28;20047;-72
2022/12/30 07:44:18;;;;;;;8.32;1.50;;;;;;;6.51;100.00;100372.94;5222422;28;20025;-72
2022/12/30 07:46:49;;;;;;;11.13;1.55;;;;;;;6.55;100.00;100379.78;5231741;28;20037;-72
2022/12/30 07:49:19;;;;;;;12.60;1.63;;;;;;;6.58;100.00;100385.75;5210375;28;20126;-72
2022/12/30 07:51:49;;;;;;;6.80;1.40;;;;;;;6.79;100.00;100381.81;5231414;28;20036;-73
2022/12/30 07:54:20;;;;;;;10.77;1.60;;;;;;;7.10;98.69;100388.00;5226335;28;20033;-72
2022/12/30 07:56:50;;;;;;;9.95;1.45;;;;;;;7.30;97.21;100392.66;5227763;28;20020;-72
2022/12/30 07:59:20;;;;;;;10.40;1.30;;;;;;;7.92;94.21;100372.78;5226294;28;20025;-72
2022/12/30 08:01:51;;;;;;;8.43;1.60;;;;;;;8.23;90.96;100374.47;5221475;28;20155;-73
2022/12/30 08:04:21;;;;;;;8.00;1.70;;;;;;;8.68;89.10;100362.69;5222014;28;20025;-72
2022/12/30 08:06:51;;;;;;;9.88;1.60;;;;;;;9.17;87.25;100373.22;5216255;28;20056;-73
2022/12/30 08:09:22;;;;;;;7.32;1.67;;;;;;;9.55;86.14;100371.03;5216596;28;20531;-73
2022/12/30 08:11:52;;;;;;;8.93;1.50;;;;;;;9.53;84.92;100370.25;5226588;28;20040;-73
2022/12/30 08:14:22;;;;;;;5.47;1.55;;;;;;;9.89;84.24;100370.69;5206180;28;20037;-73
2022/12/30 08:16:52;;;;;;;8.55;1.67;;;;;;;10.06;82.89;100365.75;5232419;28;20033;-73
2022/12/30 08:19:23;;;;;;;7.03;1.60;;;;;;;9.68;82.38;100382.72;5232172;28;20071;-73
2022/12/30 08:21:53;;;;;;;7.55;1.27;;;;;;;9.69;83.50;100379.22;5228219;28;20041;-73
2022/12/30 08:24:23;;;;;;;11.90;1.90;;;;;;;9.96;82.16;100377.41;5229928;28;20120;-73
2022/12/30 08:26:54;;;;;;;7.57;1.27;;;;;;;10.15;81.41;100368.03;5225929;28;20029;-73
2022/12/30 08:29:24;;;;;;;9.80;1.50;;;;;;;10.54;80.59;100366.50;5227570;28;20032;-72
2022/12/30 08:31:57;;;;;;;10.93;1.60;;;;;;;10.57;80.76;100356.78;5227235;28;20347;-73
2022/12/30 08:34:27;;;;;;;6.85;1.45;;;;;;;10.71;80.53;100348.41;5232413;28;20021;-73
2022/12/30 08:36:58;;;;;;;9.02;1.80;;;;;;;10.78;79.55;100355.94;5229114;28;20838;-73
2022/12/30 08:39:28;;;;;;;9.07;1.55;;;;;;;10.43;80.68;100353.00;5223249;28;20060;-73
2022/12/30 08:41:58;;;;;;;5.18;1.35;;;;;;;9.70;82.75;100360.06;5210706;28;20090;-73
2022/12/30 08:44:28;;;;;;;11.40;1.60;;;;;;;9.12;85.83;100359.50;5231773;28;20024;-72
2022/12/30 08:46:59;;;;;;;9.55;1.45;;;;;;;8.58;88.50;100365.63;5228982;28;20029;-73
2022/12/30 08:49:29;;;;;;;10.85;1.60;;;;;;;8.44;90.20;100368.66;5232703;28;20536;-73
2022/12/30 08:52:01;;;;;;;10.15;1.70;;;;;;;8.36;90.71;100359.38;5231482;28;20064;-73
2022/12/30 08:54:31;;;;;;;10.98;1.20;;;;;;;8.31;91.23;100366.44;5230160;28;20029;-73
2022/12/30 08:57:02;;;;;;;8.88;1.58;;;;;;;8.31;90.96;100358.63;5225584;28;20490;-72
2022/12/30 08:59:32;;;;;;;8.68;1.50;;;;;;;8.35;91.79;100363.72;5226663;28;20029;-73
2022/12/30 09:02:02;;;;;;;10.02;1.52;;;;;;;8.28;91.49;100361.34;5223228;28;20082;-72
2022/12/30 09:04:32;;;;;;;13.73;2.28;;;;;;;8.22;91.85;100362.34;5224152;28;20099;-73
2022/12/30 09:07:03;;;;;;;14.00;1.80;;;;;;;8.18;92.07;100365.97;5230104;28;20146;-73
2022/12/30 09:09:33;;;;;;;13.25;1.80;;;;;;;8.16;91.76;100372.94;5223479;28;20030;-73
2022/12/30 09:12:04;;;;;;;9.45;1.77;;;;;;;8.23;91.78;100377.06;5224105;28;20375;-72
2022/12/30 09:14:34;;;;;;;10.80;1.48;;;;;;;8.35;91.82;100365.47;5229678;28;20025;-72
2022/12/30 09:17:04;;;;;;;8.98;1.30;;;;;;;8.47;91.29;100368.56;5232926;28;20024;-73
2022/12/30 09:19:35;;;;;;;16.20;1.75;;;;;;;8.53;90.70;100364.91;5229936;28;20028;-72
2022/12/30 09:22:05;;;;;;;10.10;1.60;;;;;;;8.64;90.84;100379.31;5230120;28;20502;-73
2022/12/30 09:24:35;;;;;;;10.60;1.33;;;;;;;8.65;91.37;100370.59;5233357;28;20373;-72
2022/12/30 09:27:05;;;;;;;9.43;1.55;;;;;;;8.67;91.98;100388.75;5229134;28;20040;-73
2022/12/30 09:29:36;;;;;;;10.82;1.77;;;;;;;8.60;91.30;100397.69;5225220;28;20033;-73
2022/12/30 09:32:06;;;;;;;10.50;1.60;;;;;;;8.73;90.55;100402.47;5226210;28;20029;-73
2022/12/30 09:34:36;;;;;;;10.95;1.63;;;;;;;8.68;89.87;100393.06;5227666;28;20044;-73
2022/12/30 09:37:08;;;;;;;8.00;1.52;;;;;;;8.69;90.31;100397.41;5220706;28;20037;-72
2022/12/30 09:39:38;;;;;;;10.75;1.60;;;;;;;8.77;90.30;100401.47;5225129;28;20028;-72
2022/12/30 09:45:31;;;;;;;8.45;1.35;;;;;;;8.76;88.93;100391.94;5227719;28;20058;-73
2022/12/30 09:48:08;;;;;;;7.75;1.50;;;;;;;8.83;89.35;100398.69;5225274;28;20202;-72
2022/12/30 09:50:45;;;;;;;14.38;1.75;;;;;;;8.86;89.13;100382.94;5217951;28;20528;-72
2022/12/30 09:53:31;;;;;;;13.70;1.95;;;;;;;8.82;88.67;100381.34;5231165;28;20071;-73
2022/12/30 09:56:09;;;;;;;8.88;1.77;;;;;;;8.97;88.91;100380.84;5231437;28;20560;-73
2022/12/30 09:58:42;;;;;;;8.85;1.67;;;;;;;9.13;88.13;100369.88;5228445;28;20033;-73
2022/12/30 10:01:12;;;;;;;13.43;1.70;;;;;;;9.20;88.75;100375.72;5221927;28;20052;-73
2022/12/30 10:03:43;;;;;;;9.20;1.20;;;;;;;9.26;87.52;100367.69;5231564;28;20516;-72
2022/12/30 10:06:16;;;;;;;11.80;1.80;;;;;;;9.23;86.81;100360.84;5230453;28;20025;-72
2022/12/30 10:09:05;;;;;;;12.65;1.83;;;;;;;9.28;86.86;100356.31;5226921;28;20082;-72
2022/12/30 10:12:08;;;;;;;10.95;1.45;;;;;;;9.36;86.92;100343.88;5229878;28;20056;-73
2022/12/30 10:14:38;;;;;;;12.85;1.77;;;;;;;9.25;87.09;100329.50;5160605;28;20722;-72
2022/12/30 10:17:18;;;;;;;10.00;1.90;;;;;;;9.20;87.58;100321.84;5229344;28;20474;-73
2022/12/30 10:20:10;;;;;;;11.55;1.85;;;;;;;9.13;87.23;100315.13;5227017;28;20491;-72
2022/12/30 10:22:48;;;;;;;8.32;1.83;;;;;;;9.21;87.18;100312.25;5224929;28;20074;-73
2022/12/30 10:25:34;;;;;;;7.40;1.10;;;;;;;9.27;86.99;100315.50;5221809;28;20024;-73
2022/12/30 10:28:08;;;;;;;12.75;2.72;;;;;;;9.26;86.86;100305.97;5213424;28;20117;-72
2022/12/30 10:30:47;;;;;;;9.82;1.23;;;;;;;9.33;86.39;100306.63;5224100;28;20111;-73
2022/12/30 10:33:22;;;;;;;8.88;1.40;;;;;;;9.48;85.06;100301.72;5222772;28;20033;-71
2022/12/30 10:36:02;;;;;;;10.32;1.70;;;;;;;9.40;85.22;100292.44;5226240;28;20061;-73
2022/12/30 10:38:32;;;;;;;7.40;1.45;;;;;;;9.33;85.99;100285.75;5225443;28;20024;-72
2022/12/30 10:41:11;;;;;;;10.77;1.33;;;;;;;9.35;85.61;100278.72;5224186;28;20054;-73
2022/12/30 10:44:00;;;;;;;10.85;1.70;;;;;;;9.44;85.43;100283.59;5222069;28;20095;-72
2022/12/30 10:46:54;;;;;;;6.13;1.27;;;;;;;9.56;86.76;100268.41;5213214;28;20074;-73
2022/12/30 10:49:48;;;;;;;10.02;1.45;;;;;;;9.63;85.54;100254.19;5228637;28;20040;-73
2022/12/30 10:52:19;;;;;;;8.10;1.33;;;;;;;9.77;86.28;100253.69;5228848;28;20043;-71
2022/12/30 10:54:49;;;;;;;7.13;1.27;;;;;;;9.75;86.05;100263.34;5229424;28;20289;-72
2022/12/30 10:57:24;;;;;;;8.18;1.38;;;;;;;9.85;84.78;100259.47;5229403;28;20129;-72
2022/12/30 10:59:56;;;;;;;10.00;1.40;;;;;;;9.87;84.91;100252.44;5224775;28;20143;-73
2022/12/30 11:02:35;;;;;;;8.18;1.38;;;;;;;9.86;83.02;100235.09;5229784;28;20486;-72
2022/12/30 11:05:26;;;;;;;6.75;1.23;;;;;;;9.95;85.44;100229.50;5210403;28;20490;-73
2022/12/30 11:07:58;;;;;;;6.18;0.90;;;;;;;10.04;84.42;100224.84;5220102;28;20509;-73
2022/12/30 11:10:29;;;;;;;4.70;1.02;;;;;;;10.15;84.25;100216.56;5226097;28;20037;-74
2022/12/30 11:16:08;;;;;;;4.57;1.17;;;;;;;10.07;84.53;100208.19;5223560;28;20560;-72
2022/12/30 11:18:44;;;;;;;2.65;0.60;;;;;;;10.00;85.10;100202.31;5192564;28;20044;-73
2022/12/30 11:21:23;;;;;;;6.18;1.08;;;;;;;9.87;85.73;100205.47;5222548;28;20028;-73
2022/12/30 11:23:56;;;;;;;5.88;1.15;;;;;;;9.99;86.74;100195.38;5227246;28;20028;-73
2022/12/30 11:26:29;;;;;;;9.88;1.13;;;;;;;9.81;86.56;100190.88;5223198;28;20083;-73
2022/12/30 11:29:06;;;;;;;6.13;1.00;;;;;;;9.78;89.50;100195.38;5220037;28;20425;-73
2022/12/30 11:31:41;;;;;;;7.93;1.23;;;;;;;9.72;90.13;100190.38;5217283;28;20036;-73
2022/12/30 11:34:20;;;;;;;8.90;1.63;;;;;;;9.67;87.71;100187.13;5219092;28;20390;-73
2022/12/30 11:36:51;;;;;;;10.63;1.52;;;;;;;9.59;89.16;100189.16;5222808;28;20037;-72
2022/12/30 11:39:25;;;;;;;10.57;1.60;;;;;;;9.38;87.91;100182.13;5229021;28;20094;-72
2022/12/30 11:42:01;;;;;;;5.53;1.25;;;;;;;9.41;87.92;100182.00;5228914;28;20087;-73
2022/12/30 11:44:32;;;;;;;5.05;1.20;;;;;;;9.48;88.19;100173.06;5230058;28;20029;-72
2022/12/30 11:47:11;;;;;;;6.90;1.15;;;;;;;9.36;86.41;100169.16;5208971;28;20020;-73
2022/12/30 11:49:47;;;;;;;9.10;1.35;;;;;;;9.36;86.20;100166.56;5226315;28;20528;-73
2022/12/30 11:52:26;;;;;;;7.63;1.23;;;;;;;9.37;87.13;100154.34;5230947;28;20040;-72
2022/12/30 11:54:59;;;;;;;7.47;1.27;;;;;;;9.32;86.95;100143.25;5230610;28;20548;-73
2022/12/30 11:57:42;;;;;;;10.27;1.33;;;;;;;9.42;87.02;100131.56;5227667;28;20674;-73
2022/12/30 12:00:12;;;;;;;6.13;1.20;;;;;;;9.53;87.20;100132.00;5220266;28;20120;-73
2022/12/30 12:02:48;;;;;;;8.75;1.30;;;;;;;9.52;86.47;100125.09;5226170;28;20480;-73
2022/12/30 12:05:21;;;;;;;5.95;1.10;;;;;;;9.56;87.17;100114.50;5228292;28;20047;-73
2022/12/30 12:07:58;;;;;;;5.25;1.08;;;;;;;9.60;86.82;100108.22;5228435;28;20482;-73
2022/12/30 12:10:34;;;;;;;4.97;1.00;;;;;;;9.62;87.03;100097.75;5226711;28;20041;-73
2022/12/30 12:14:05;;;;;;;3.80;0.90;;;;;;;9.58;88.76;100090.94;5227532;28;20045;-72
2022/12/30 12:16:53;;;;;;;4.65;0.95;;;;;;;9.59;88.92;100074.38;5133798;28;20065;-73
2022/12/30 12:19:39;;;;;;;6.35;1.15;;;;;;;9.61;87.64;100067.31;5134855;28;20034;-73
2022/12/30 12:22:20;;;;;;;5.80;1.02;;;;;;;9.76;87.98;100062.38;5199974;28;20044;-73
2022/12/30 12:24:59;;;;;;;5.18;1.10;;;;;;;9.75;87.76;100058.06;5215537;28;20498;-73
2022/12/30 12:27:29;;;;;;;6.53;1.15;;;;;;;9.69;86.68;100052.22;5213780;28;20325;-73
2022/12/30 12:29:59;;;;;;;6.00;1.10;;;;;;;9.66;87.61;100040.16;5216398;28;20371;-73
2022/12/30 12:33:08;;;;;;;5.53;1.08;;;;;;;9.61;87.86;100038.63;5210579;28;20391;-72
2022/12/30 12:35:56;;;;;;;6.28;1.20;;;;;;;9.57;88.13;100042.28;5195421;22;20145;-74
2022/12/30 12:38:45;;;;;;;6.50;1.20;;;;;;;9.51;88.82;100027.72;5205875;28;20029;-74
2022/12/30 12:41:48;;;;;;;6.10;1.30;;;;;;;9.42;90.65;100025.50;5224525;28;20036;-73
2022/12/30 12:44:46;;;;;;;6.22;1.23;;;;;;;9.33;90.09;100025.00;5183924;28;20036;-73
2022/12/30 12:48:01;;;;;;;5.25;1.00;;;;;;;9.36;91.32;100020.53;5205062;28;20056;-74
2022/12/30 12:51:09;;;;;;;6.07;1.30;;;;;;;9.16;91.95;100009.16;5170157;28;20093;-73
2022/12/30 12:54:06;;;;;;;6.47;0.98;;;;;;;9.15;93.46;99992.66;5230396;28;20371;-73